Time;durP1;ratioP1;P1;durP2;ratioP2;P2;SDS_P1;SDS_P2;PMS_P1;PMS_P2;Temp;Humidity;BMP_temperature;BMP_pressure;BME280_temperature;BME280_humidity;BME280_pressure;Samples;Min_cycle;Max_cycle;Signal;HPM_P1;HPM_P2
2022/07/07 00:02:06;;;;;;;8.93;6.47;;;;;;;19.02;71.66;102085.00;6306982;22;20011;-69
2022/07/07 00:04:32;;;;;;;12.68;7.05;;;;;;;19.05;71.37;102084.19;6276804;22;20018;-69
2022/07/07 00:06:59;;;;;;;10.73;6.40;;;;;;;19.04;71.34;102082.41;6306599;22;20007;-70
2022/07/07 00:09:25;;;;;;;8.90;6.78;;;;;;;19.02;71.59;102079.78;6305182;22;20080;-69
2022/07/07 00:11:50;;;;;;;8.20;6.50;;;;;;;19.03;71.68;102076.31;6304230;22;20403;-69
2022/07/07 00:14:16;;;;;;;8.60;6.78;;;;;;;18.97;72.35;102077.97;6306157;22;20007;-70
2022/07/07 00:16:41;;;;;;;9.00;6.25;;;;;;;18.96;72.31;102069.28;6277854;22;20007;-70
2022/07/07 00:19:07;;;;;;;10.23;7.55;;;;;;;19.00;72.02;102072.81;6305309;22;20007;-70
2022/07/07 00:21:32;;;;;;;12.95;7.20;;;;;;;18.98;72.10;102069.28;6305652;22;20007;-69
2022/07/07 00:23:58;;;;;;;8.68;7.03;;;;;;;18.98;72.15;102064.09;6278619;22;20056;-70
2022/07/07 00:26:23;;;;;;;8.55;7.00;;;;;;;18.94;72.07;102057.09;6306301;22;20649;-70
2022/07/07 00:28:49;;;;;;;9.13;7.15;;;;;;;18.96;72.20;102044.97;6304286;22;20026;-69
2022/07/07 00:31:14;;;;;;;13.98;7.05;;;;;;;18.94;72.11;102041.47;6304604;22;20018;-70
2022/07/07 00:33:40;;;;;;;10.90;6.60;;;;;;;18.97;72.25;102036.28;6304666;22;20307;-70
2022/07/07 00:36:07;;;;;;;11.65;7.18;;;;;;;18.94;72.51;102036.25;6303315;22;19999;-70
2022/07/07 00:38:33;;;;;;;11.38;6.93;;;;;;;18.89;72.27;102035.31;6304788;22;20437;-70
2022/07/07 00:40:58;;;;;;;8.48;6.60;;;;;;;18.94;72.59;102036.25;6304606;22;20003;-70
2022/07/07 00:43:24;;;;;;;11.68;7.13;;;;;;;18.94;72.19;102038.88;6275033;22;20052;-70
2022/07/07 00:45:50;;;;;;;11.38;7.30;;;;;;;18.94;72.44;102038.88;6302720;22;20422;-70
2022/07/07 00:48:19;;;;;;;11.65;7.05;;;;;;;18.95;72.33;102028.44;6305118;22;20011;-70
2022/07/07 00:50:46;;;;;;;11.25;6.25;;;;;;;18.95;72.42;102031.06;6304458;22;20031;-70
2022/07/07 00:53:12;;;;;;;8.43;6.50;;;;;;;18.89;73.36;102014.47;6304930;22;20003;-69
2022/07/07 00:55:39;;;;;;;9.68;6.40;;;;;;;18.90;73.09;102019.69;6305147;22;20011;-70
2022/07/07 00:58:05;;;;;;;12.32;6.30;;;;;;;18.91;72.73;102016.22;6304038;22;20010;-70
2022/07/07 01:00:31;;;;;;;9.88;6.40;;;;;;;18.94;72.58;102020.63;6304025;22;20018;-70
2022/07/07 01:02:57;;;;;;;8.50;5.93;;;;;;;18.88;72.45;102020.53;6302919;22;20007;-70
2022/07/07 01:05:23;;;;;;;9.80;6.13;;;;;;;18.89;72.79;102019.69;6303517;22;20433;-70
2022/07/07 01:07:51;;;;;;;8.65;5.90;;;;;;;18.93;72.46;102018.88;6305816;22;20031;-70
2022/07/07 01:10:17;;;;;;;9.52;6.00;;;;;;;18.92;72.34;102024.91;6304236;22;20090;-71
2022/07/07 01:12:43;;;;;;;10.93;6.10;;;;;;;18.92;72.56;102022.31;6304391;22;20007;-70
2022/07/07 01:15:11;;;;;;;7.78;6.03;;;;;;;18.92;73.18;102028.41;6304578;22;20055;-71
2022/07/07 01:17:37;;;;;;;9.38;5.95;;;;;;;18.89;72.67;102022.28;6305569;22;20090;-70
2022/07/07 01:20:05;;;;;;;10.45;6.13;;;;;;;18.94;72.31;102021.50;6303790;22;20422;-70
2022/07/07 01:22:33;;;;;;;8.47;5.67;;;;;;;18.94;73.06;102026.69;6304844;22;20006;-70
2022/07/07 01:24:59;;;;;;;10.13;5.40;;;;;;;18.93;73.42;102013.66;6303361;22;20021;-70
2022/07/07 01:27:25;;;;;;;9.27;5.72;;;;;;;18.89;73.15;102017.06;6303237;22;20014;-70
2022/07/07 01:29:53;;;;;;;8.18;5.72;;;;;;;18.87;74.04;102024.88;6304950;22;20034;-70
2022/07/07 01:32:19;;;;;;;9.10;5.70;;;;;;;18.85;73.38;102010.06;6304425;22;20003;-70
2022/07/07 01:34:47;;;;;;;7.25;5.15;;;;;;;18.81;74.05;101995.25;6304239;22;20444;-70
2022/07/07 01:37:12;;;;;;;6.53;5.38;;;;;;;18.88;73.73;101990.16;6304025;22;20082;-70
2022/07/07 01:39:39;;;;;;;9.73;5.32;;;;;;;18.85;73.56;101994.44;6304527;22;20038;-70
2022/07/07 01:42:06;;;;;;;8.00;5.22;;;;;;;18.89;73.89;101993.63;6305318;22;20498;-70
2022/07/07 01:44:38;;;;;;;11.18;5.50;;;;;;;18.90;73.83;101990.16;6303806;22;19999;-69
2022/07/07 01:47:05;;;;;;;8.75;4.93;;;;;;;18.90;73.91;101992.75;6276800;22;20000;-70
2022/07/07 01:49:32;;;;;;;9.52;5.00;;;;;;;18.91;73.74;101984.06;6302702;22;20302;-70
2022/07/07 01:51:58;;;;;;;9.65;5.18;;;;;;;18.87;73.57;101983.19;6304118;22;20007;-70
2022/07/07 01:54:25;;;;;;;10.52;5.03;;;;;;;18.88;74.05;101977.09;6303016;22;20003;-69
2022/07/07 01:56:51;;;;;;;9.25;4.78;;;;;;;18.91;74.01;101982.34;6304520;22;20022;-69
2022/07/07 01:59:17;;;;;;;7.18;4.95;;;;;;;18.85;74.02;101976.19;6302960;22;20426;-70
2022/07/07 02:01:42;;;;;;;8.65;4.63;;;;;;;18.88;74.17;101978.84;6302907;22;20057;-70
2022/07/07 02:04:08;;;;;;;6.15;4.30;;;;;;;18.88;74.36;101974.50;6302729;22;20109;-70
2022/07/07 02:06:33;;;;;;;6.40;3.97;;;;;;;18.90;74.33;101978.00;6302015;22;20011;-70
2022/07/07 02:08:59;;;;;;;6.88;3.67;;;;;;;18.91;74.50;101976.25;6304504;22;20003;-70
2022/07/07 02:11:26;;;;;;;6.85;3.60;;;;;;;18.87;74.83;101987.50;6303493;22;20004;-70
2022/07/07 02:13:52;;;;;;;6.10;3.70;;;;;;;18.90;74.90;101987.53;6303021;22;20037;-70
2022/07/07 02:16:20;;;;;;;8.10;3.25;;;;;;;18.91;75.00;101984.06;6302915;22;20011;-69
2022/07/07 02:18:48;;;;;;;7.57;3.20;;;;;;;18.91;74.85;101976.25;6302678;22;20056;-70
2022/07/07 02:21:14;;;;;;;5.53;3.38;;;;;;;18.88;74.92;101973.63;6305108;22;20015;-70
2022/07/07 02:23:45;;;;;;;8.20;3.10;;;;;;;18.93;74.98;101975.44;6303234;22;20003;-70
2022/07/07 02:26:11;;;;;;;5.82;3.13;;;;;;;18.90;75.28;101975.38;6303479;22;20003;-70
2022/07/07 02:28:38;;;;;;;7.78;3.35;;;;;;;18.92;75.46;101973.66;6302770;22;20626;-70
2022/07/07 02:31:04;;;;;;;6.65;2.83;;;;;;;18.92;75.24;101965.84;6301948;22;20333;-70
2022/07/07 02:33:29;;;;;;;6.90;3.00;;;;;;;18.94;75.39;101965.88;6303895;22;20495;-70
2022/07/07 02:35:55;;;;;;;7.47;3.00;;;;;;;18.97;75.50;101971.97;6302540;22;20018;-70
2022/07/07 02:38:22;;;;;;;7.95;2.83;;;;;;;18.96;75.42;101969.38;6303504;22;20007;-70
2022/07/07 02:40:49;;;;;;;4.45;2.83;;;;;;;18.95;75.51;101967.63;6305216;22;20007;-70
2022/07/07 02:43:14;;;;;;;6.40;2.83;;;;;;;18.95;75.48;101978.06;6304911;22;20026;-70
2022/07/07 02:45:41;;;;;;;7.15;2.63;;;;;;;18.96;75.08;101980.66;6278774;22;20296;-70
2022/07/07 02:48:08;;;;;;;7.38;2.42;;;;;;;18.94;75.52;101982.41;6305494;22;20448;-69
2022/07/07 02:50:33;;;;;;;7.07;2.42;;;;;;;18.95;75.68;101980.66;6279774;22;20003;-70
2022/07/07 02:52:59;;;;;;;8.13;2.75;;;;;;;18.92;75.42;101980.59;6279818;22;20022;-70
2022/07/07 02:55:24;;;;;;;6.18;2.20;;;;;;;18.92;75.06;101980.59;6307996;22;20014;-70
2022/07/07 02:57:51;;;;;;;4.70;2.30;;;;;;;18.92;74.91;101989.28;6306088;22;20027;-70
2022/07/07 03:00:17;;;;;;;2.83;1.77;;;;;;;18.84;72.79;101983.13;6305699;22;20010;-69
2022/07/07 03:02:43;;;;;;;5.10;1.67;;;;;;;18.84;71.88;101972.72;6306087;22;20003;-70
2022/07/07 03:05:08;;;;;;;2.97;1.40;;;;;;;18.81;72.05;101970.09;6306083;22;20034;-70
2022/07/07 03:07:34;;;;;;;4.00;1.30;;;;;;;18.83;71.23;101988.34;6307299;22;20032;-70
2022/07/07 03:09:59;;;;;;;3.15;1.58;;;;;;;18.81;70.81;101988.31;6305308;22;20018;-70
2022/07/07 03:12:24;;;;;;;4.43;1.10;;;;;;;18.79;71.00;101981.31;6307489;22;20011;-70
2022/07/07 03:14:50;;;;;;;4.95;1.20;;;;;;;18.73;71.08;101987.34;6306707;22;20419;-70
2022/07/07 03:17:15;;;;;;;2.83;1.20;;;;;;;18.72;71.62;101999.50;6305710;22;19999;-70
2022/07/07 03:19:41;;;;;;;3.80;1.17;;;;;;;18.66;72.41;101994.16;6308011;22;20007;-70
2022/07/07 03:22:06;;;;;;;2.42;1.17;;;;;;;18.65;73.59;101991.56;6304946;22;20018;-70
2022/07/07 03:24:31;;;;;;;4.43;1.30;;;;;;;18.64;74.46;101993.28;6308365;22;20035;-70
2022/07/07 03:26:59;;;;;;;3.55;1.38;;;;;;;18.64;74.64;101985.47;6277421;22;20453;-70
2022/07/07 03:29:25;;;;;;;4.50;1.50;;;;;;;18.56;75.78;101979.25;6306974;22;20391;-69
2022/07/07 03:31:50;;;;;;;6.38;1.20;;;;;;;18.59;76.00;101988.88;6279024;22;20003;-70
2022/07/07 03:34:16;;;;;;;3.42;1.40;;;;;;;18.51;76.94;101988.78;6305509;22;20045;-70
2022/07/07 03:36:41;;;;;;;3.75;1.55;;;;;;;18.54;76.65;101982.72;6306032;22;19999;-70
2022/07/07 03:39:06;;;;;;;2.60;1.20;;;;;;;18.44;76.81;101982.63;6277912;22;20011;-70
2022/07/07 03:41:32;;;;;;;4.47;1.40;;;;;;;18.44;76.58;101982.63;6305696;22;20188;-70
2022/07/07 03:43:57;;;;;;;3.63;1.20;;;;;;;18.36;77.13;101985.94;6276698;22;20418;-71
2022/07/07 03:46:22;;;;;;;2.40;1.60;;;;;;;18.42;77.48;101980.81;6305831;22;19999;-70
2022/07/07 03:48:48;;;;;;;4.03;1.40;;;;;;;18.35;78.07;101985.06;6277358;22;20007;-70
2022/07/07 03:51:13;;;;;;;3.97;1.60;;;;;;;18.33;78.42;101983.31;6304370;22;20034;-70
2022/07/07 03:53:39;;;;;;;2.78;1.52;;;;;;;18.32;78.40;101981.53;6306029;22;20026;-70
2022/07/07 03:56:04;;;;;;;4.32;1.50;;;;;;;18.27;79.00;101980.63;6277492;22;20003;-70
2022/07/07 03:58:30;;;;;;;6.72;1.70;;;;;;;18.23;79.48;101977.97;6280828;22;20454;-70
2022/07/07 04:00:55;;;;;;;3.20;1.58;;;;;;;18.28;79.44;101983.25;6305989;22;20011;-70
2022/07/07 04:03:21;;;;;;;3.78;1.60;;;;;;;18.22;79.33;101981.44;6305275;22;20407;-69
2022/07/07 04:05:46;;;;;;;1.90;1.58;;;;;;;18.21;80.12;101976.22;6305925;22;20018;-70
2022/07/07 04:08:12;;;;;;;4.95;1.70;;;;;;;18.24;80.33;101968.44;6305172;22;20018;-70
2022/07/07 04:10:37;;;;;;;3.90;1.60;;;;;;;18.21;80.64;101960.59;6304889;22;20365;-70
2022/07/07 04:13:03;;;;;;;3.40;1.60;;;;;;;18.21;80.30;101952.78;6305472;22;20014;-70
2022/07/07 04:15:28;;;;;;;2.80;1.77;;;;;;;18.17;80.27;101951.84;6306252;22;20007;-69
2022/07/07 04:17:53;;;;;;;4.13;1.65;;;;;;;18.15;81.03;101961.38;6305772;22;20008;-69
2022/07/07 04:20:19;;;;;;;3.38;1.73;;;;;;;18.11;81.24;101962.16;6304442;22;20465;-69
2022/07/07 04:22:44;;;;;;;4.05;1.95;;;;;;;18.14;80.77;101962.22;6306531;22;20007;-69
2022/07/07 04:25:10;;;;;;;5.28;1.80;;;;;;;18.13;81.33;101959.59;6305159;22;20430;-69
2022/07/07 04:27:35;;;;;;;5.00;2.00;;;;;;;18.11;82.06;101956.97;6305056;22;20065;-70
2022/07/07 04:30:00;;;;;;;4.43;1.80;;;;;;;18.12;82.44;101963.91;6279593;22;20003;-69
2022/07/07 04:32:26;;;;;;;3.25;1.92;;;;;;;18.10;83.06;101970.84;6305527;22;20003;-69
2022/07/07 04:34:51;;;;;;;3.83;2.10;;;;;;;18.00;84.51;101979.34;6307037;22;20007;-69
2022/07/07 04:37:17;;;;;;;4.28;1.88;;;;;;;18.02;84.18;101980.28;6278052;22;20081;-69
2022/07/07 04:39:42;;;;;;;2.70;1.55;;;;;;;18.03;83.39;101989.81;6278752;22;20080;-69
2022/07/07 04:42:07;;;;;;;3.22;1.55;;;;;;;17.98;83.82;101986.28;6305938;22;20086;-69
2022/07/07 04:44:33;;;;;;;4.05;1.52;;;;;;;17.97;83.21;101989.72;6307974;22;20330;-68
2022/07/07 04:46:58;;;;;;;3.63;1.60;;;;;;;17.94;83.86;101995.75;6307949;22;20011;-69
2022/07/07 04:49:24;;;;;;;3.05;1.20;;;;;;;17.91;83.96;102000.03;6278158;22;20011;-69
2022/07/07 04:51:49;;;;;;;2.60;1.30;;;;;;;17.90;84.55;102004.38;6307568;22;20007;-69
2022/07/07 04:54:15;;;;;;;3.35;1.20;;;;;;;17.89;84.32;101999.13;6307433;22;20018;-69
2022/07/07 04:56:40;;;;;;;2.15;1.38;;;;;;;17.88;84.81;101997.38;6307328;22;20310;-69
2022/07/07 04:59:06;;;;;;;3.30;1.30;;;;;;;17.88;85.16;102002.59;6305633;22;20032;-69
2022/07/07 05:01:31;;;;;;;3.88;1.30;;;;;;;17.85;84.97;102005.16;6278501;22;20010;-69
2022/07/07 05:03:57;;;;;;;2.95;1.15;;;;;;;17.85;85.44;101997.34;6304807;22;20011;-69
2022/07/07 05:06:22;;;;;;;4.28;1.38;;;;;;;17.82;85.62;102005.09;6274887;22;20007;-69
2022/07/07 05:08:48;;;;;;;3.47;1.30;;;;;;;17.85;85.74;102005.16;6304240;22;20026;-69
2022/07/07 05:11:13;;;;;;;5.45;1.20;;;;;;;17.83;84.83;102020.72;6303101;22;20081;-69
2022/07/07 05:13:39;;;;;;;3.58;1.33;;;;;;;17.83;84.83;102019.84;6277292;22;20003;-69
2022/07/07 05:16:05;;;;;;;4.90;1.20;;;;;;;17.85;85.26;102023.38;6251478;22;20366;-69
2022/07/07 05:18:31;;;;;;;8.23;1.00;;;;;;;17.85;85.10;102025.97;6304174;22;20004;-69
2022/07/07 05:20:57;;;;;;;4.55;0.85;;;;;;;17.83;85.22;102033.72;6306239;22;20470;-69
2022/07/07 05:23:27;;;;;;;4.40;1.02;;;;;;;17.81;84.88;102029.34;6278902;22;20376;-69
2022/07/07 05:25:53;;;;;;;;;;;;;;;18.02;83.33;102034.03;6304650;22;20078;-69
2022/07/07 05:28:18;;;;;;;4.72;1.20;;;;;;;17.80;84.62;102032.81;6306393;22;19947;-69
2022/07/07 05:30:43;;;;;;;4.65;1.10;;;;;;;17.81;84.79;102030.22;6304466;22;20003;-69
2022/07/07 05:33:09;;;;;;;3.63;1.35;;;;;;;17.79;84.28;102036.28;6304725;22;20004;-69
2022/07/07 05:35:35;;;;;;;7.55;1.23;;;;;;;17.76;84.72;102031.00;6305408;22;20056;-69
2022/07/07 05:38:01;;;;;;;5.85;1.13;;;;;;;17.80;84.64;102045.81;6303905;22;20414;-69
2022/07/07 05:40:27;;;;;;;5.28;1.10;;;;;;;17.81;83.45;102050.16;6305294;22;20003;-67
2022/07/07 05:42:52;;;;;;;6.85;1.08;;;;;;;17.74;84.67;102050.91;6304738;22;20011;-69
2022/07/07 05:45:19;;;;;;;7.07;1.23;;;;;;;17.74;84.43;102056.13;6305404;22;20078;-68
2022/07/07 05:47:44;;;;;;;8.35;1.15;;;;;;;17.72;84.65;102068.22;6304992;22;20003;-69
2022/07/07 05:50:09;;;;;;;8.00;1.40;;;;;;;17.67;85.26;102066.38;6304730;22;19999;-69
2022/07/07 05:52:35;;;;;;;5.18;1.38;;;;;;;17.72;85.55;102068.22;6250547;22;20052;-67
2022/07/07 05:55:00;;;;;;;6.15;1.45;;;;;;;17.68;85.26;102069.84;6306068;22;20464;-69
2022/07/07 05:57:25;;;;;;;6.63;1.50;;;;;;;17.62;85.08;102074.94;6303843;22;20010;-69
2022/07/07 05:59:51;;;;;;;7.60;1.20;;;;;;;17.58;83.69;102073.13;6304042;22;20084;-69
2022/07/07 06:02:16;;;;;;;7.28;1.50;;;;;;;17.64;84.88;102081.91;6305537;22;20037;-68
2022/07/07 06:04:42;;;;;;;5.55;1.30;;;;;;;17.72;84.74;102092.53;6303830;22;20354;-68
2022/07/07 06:07:07;;;;;;;6.70;1.48;;;;;;;17.82;84.96;102089.22;6276879;22;20011;-68
2022/07/07 06:09:33;;;;;;;7.47;1.60;;;;;;;17.81;84.22;102089.19;6306292;22;20034;-69
2022/07/07 06:11:58;;;;;;;8.57;1.48;;;;;;;17.80;82.25;102100.47;6305055;22;20011;-69
2022/07/07 06:14:23;;;;;;;10.98;1.60;;;;;;;17.82;81.99;102094.41;6305701;22;20084;-69
2022/07/07 06:16:49;;;;;;;8.80;1.50;;;;;;;17.80;80.87;102106.53;6305699;22;20329;-69
2022/07/07 06:19:14;;;;;;;11.90;1.65;;;;;;;17.74;79.77;102114.22;6308030;22;20007;-69
2022/07/07 06:21:41;;;;;;;8.48;1.70;;;;;;;17.70;79.53;102112.38;6280122;22;20035;-69
2022/07/07 06:24:07;;;;;;;8.27;1.48;;;;;;;17.66;78.26;102118.38;6305132;22;20536;-67
2022/07/07 06:26:33;;;;;;;9.18;1.90;;;;;;;17.67;79.38;102128.81;6306696;22;19999;-69
2022/07/07 06:28:59;;;;;;;10.65;1.60;;;;;;;17.68;78.70;102132.28;6305830;22;20019;-70
2022/07/07 06:31:24;;;;;;;9.43;1.67;;;;;;;17.70;78.99;102141.84;6307202;22;20015;-69
2022/07/07 06:33:49;;;;;;;8.75;1.67;;;;;;;17.68;78.73;102143.56;6305903;22;20008;-67
2022/07/07 06:36:15;;;;;;;10.50;1.65;;;;;;;17.72;78.33;102141.06;6305488;22;20437;-67
2022/07/07 06:38:40;;;;;;;8.18;1.60;;;;;;;17.74;78.92;102142.84;6307934;22;20314;-66
2022/07/07 06:41:06;;;;;;;8.93;1.65;;;;;;;17.73;76.80;102138.50;6306999;22;20072;-67
2022/07/07 06:43:31;;;;;;;9.95;1.80;;;;;;;17.69;75.29;102155.72;6307265;22;20007;-68
2022/07/07 06:45:57;;;;;;;11.52;1.73;;;;;;;17.60;75.69;102157.28;6305988;22;20003;-67
2022/07/07 06:48:23;;;;;;;7.88;1.52;;;;;;;17.58;76.38;102161.56;6308193;22;20007;-68
2022/07/07 06:50:49;;;;;;;5.60;1.02;;;;;;;17.54;77.01;102165.84;6306883;22;20432;-68
2022/07/07 06:53:15;;;;;;;6.47;1.00;;;;;;;17.54;76.28;102175.38;6305652;22;20007;-68
2022/07/07 06:55:41;;;;;;;3.83;1.13;;;;;;;17.53;76.09;102165.78;6309447;22;20006;-67
2022/07/07 06:58:07;;;;;;;5.47;1.55;;;;;;;17.55;75.70;102175.38;6306213;22;19995;-68
2022/07/07 07:00:33;;;;;;;4.28;0.90;;;;;;;17.61;75.49;102172.91;6306838;22;20114;-68
2022/07/07 07:02:58;;;;;;;7.78;1.20;;;;;;;17.68;74.40;102179.13;6306272;22;20060;-68
2022/07/07 07:05:24;;;;;;;6.90;1.02;;;;;;;17.79;75.62;102163.75;6307442;22;20025;-68
2022/07/07 07:07:49;;;;;;;5.03;1.00;;;;;;;17.79;74.26;102168.94;6307103;22;20010;-68
2022/07/07 07:10:14;;;;;;;5.43;0.90;;;;;;;17.89;75.16;102168.25;6278791;22;20011;-68
2022/07/07 07:12:40;;;;;;;6.15;0.95;;;;;;;18.05;74.31;102178.13;6307308;22;20011;-67
2022/07/07 07:15:06;;;;;;;3.20;0.90;;;;;;;18.13;72.12;102173.03;6306422;22;20018;-67
2022/07/07 07:17:32;;;;;;;7.53;1.15;;;;;;;18.30;73.34;102166.41;6306159;22;20006;-67
2022/07/07 07:19:58;;;;;;;6.80;1.02;;;;;;;18.39;73.56;102181.31;6305953;22;20022;-68
2022/07/07 07:22:24;;;;;;;7.88;1.08;;;;;;;18.51;72.07;102170.22;6306194;22;20017;-67
2022/07/07 07:24:50;;;;;;;6.85;0.90;;;;;;;18.44;70.63;102174.44;6279009;22;20086;-68
2022/07/07 07:27:16;;;;;;;6.32;0.95;;;;;;;18.40;70.16;102180.47;6306829;22;20030;-68
2022/07/07 07:29:42;;;;;;;7.78;1.05;;;;;;;18.33;70.69;102192.50;6306151;22;20438;-67
2022/07/07 07:32:07;;;;;;;6.68;1.05;;;;;;;18.22;70.38;102184.50;6307267;22;20007;-67
2022/07/07 07:34:33;;;;;;;4.63;0.95;;;;;;;18.26;70.84;102213.19;6307828;22;20006;-68
2022/07/07 07:36:58;;;;;;;7.72;1.00;;;;;;;18.28;70.96;102201.09;6307423;22;20003;-67
2022/07/07 07:39:24;;;;;;;4.28;1.00;;;;;;;18.30;70.88;102200.25;6306203;22;20076;-68
2022/07/07 07:41:49;;;;;;;8.00;1.00;;;;;;;18.29;70.82;102210.66;6306702;22;20003;-68
2022/07/07 07:45:09;;;;;;;7.20;1.17;;;;;;;18.26;71.22;102221.91;6306350;22;20086;-67
2022/07/07 07:47:00;;;;;;;7.22;1.25;;;;;;;18.35;70.94;102216.84;6305249;22;20094;-66
2022/07/07 07:49:25;;;;;;;5.00;1.13;;;;;;;18.31;69.34;102221.94;6307224;22;20031;-67
2022/07/07 07:51:52;;;;;;;4.25;1.25;;;;;;;18.28;69.76;102217.59;6307437;22;20353;-67
2022/07/07 07:54:18;;;;;;;7.53;1.35;;;;;;;18.33;70.16;102210.72;6252521;22;20425;-67
2022/07/07 07:56:43;;;;;;;7.63;1.50;;;;;;;18.34;69.65;102232.44;6279202;22;20000;-67
2022/07/07 07:59:09;;;;;;;4.68;1.42;;;;;;;18.32;71.59;102223.69;6277866;22;20003;-67
2022/07/07 08:01:34;;;;;;;4.63;1.00;;;;;;;18.21;74.18;102226.13;6306452;22;20370;-67
2022/07/07 08:03:59;;;;;;;2.60;0.60;;;;;;;18.17;75.06;102229.53;6306605;22;20833;-67
2022/07/07 08:06:25;;;;;;;4.80;1.00;;;;;;;18.08;73.98;102227.63;6305092;22;20011;-68
2022/07/07 08:08:50;;;;;;;4.75;0.77;;;;;;;18.06;73.82;102229.31;6306116;22;20007;-68
2022/07/07 08:11:16;;;;;;;3.92;0.80;;;;;;;17.97;73.81;102230.88;6305852;22;20034;-68
2022/07/07 08:13:41;;;;;;;4.82;0.90;;;;;;;17.92;73.14;102230.78;6305731;22;20006;-68
2022/07/07 08:16:07;;;;;;;4.30;0.98;;;;;;;17.91;73.97;102244.66;6305580;22;20003;-68
2022/07/07 08:18:32;;;;;;;6.05;1.13;;;;;;;17.89;74.06;102248.94;6304776;22;20644;-67
2022/07/07 08:20:58;;;;;;;5.40;1.02;;;;;;;17.85;74.01;102249.72;6305839;22;20444;-68
2022/07/07 08:23:23;;;;;;;6.88;1.13;;;;;;;17.83;74.50;102252.28;6306249;22;20018;-68
2022/07/07 08:25:49;;;;;;;5.45;0.80;;;;;;;17.85;74.54;102254.94;6306928;22;20030;-68
2022/07/07 08:28:14;;;;;;;4.82;0.80;;;;;;;17.83;73.58;102257.47;6307849;22;20019;-68
2022/07/07 08:30:39;;;;;;;4.45;0.90;;;;;;;17.86;72.94;102254.09;6306287;22;20015;-68
2022/07/07 08:33:05;;;;;;;3.08;0.60;;;;;;;17.84;72.82;102254.06;6307681;22;20014;-68
2022/07/07 08:35:31;;;;;;;4.03;0.90;;;;;;;17.84;71.92;102258.38;6306828;22;20299;-68
2022/07/07 08:37:56;;;;;;;3.58;0.80;;;;;;;17.86;71.73;102251.47;6306883;22;20033;-68
2022/07/07 08:40:22;;;;;;;3.30;0.70;;;;;;;17.89;71.41;102252.41;6306630;22;20004;-68
2022/07/07 08:42:48;;;;;;;3.15;0.80;;;;;;;17.97;71.85;102255.19;6305936;22;20050;-68
2022/07/07 08:45:13;;;;;;;3.03;0.60;;;;;;;18.08;71.63;102253.66;6278417;22;20049;-68
2022/07/07 08:47:38;;;;;;;4.88;1.05;;;;;;;18.19;71.26;102244.31;6305844;22;20003;-68
2022/07/07 08:50:05;;;;;;;5.72;1.20;;;;;;;18.34;70.95;102248.94;6304881;22;20078;-68
2022/07/07 08:52:30;;;;;;;4.80;0.93;;;;;;;18.45;70.22;102249.13;6305704;22;20011;-67
2022/07/07 08:54:57;;;;;;;4.03;0.88;;;;;;;18.56;70.27;102252.78;6306039;22;20007;-68
2022/07/07 08:57:24;;;;;;;5.97;1.00;;;;;;;18.68;71.21;102246.94;6306550;22;20003;-67
2022/07/07 08:59:50;;;;;;;6.35;1.10;;;;;;;18.76;71.23;102258.38;6306482;22;20006;-68
2022/07/07 09:02:16;;;;;;;8.75;1.02;;;;;;;18.72;70.02;102274.81;6306533;22;20003;-68
2022/07/07 09:04:42;;;;;;;5.07;1.20;;;;;;;18.58;69.94;102271.06;6306503;22;20013;-68
2022/07/07 09:07:07;;;;;;;6.45;1.55;;;;;;;18.53;71.01;102277.91;6279638;22;20310;-68
2022/07/07 09:09:36;;;;;;;5.30;0.98;;;;;;;18.45;70.74;102278.66;6306553;22;20015;-68
2022/07/07 09:12:03;;;;;;;3.50;0.75;;;;;;;18.46;70.91;102292.56;6306431;22;20026;-68
2022/07/07 09:14:55;;;;;;;5.68;1.02;;;;;;;18.56;71.10;102288.38;6304591;22;20007;-68
2022/07/07 09:17:31;;;;;;;4.70;1.00;;;;;;;18.55;70.90;102284.03;6296781;22;20003;-68
2022/07/07 09:19:58;;;;;;;8.18;1.30;;;;;;;18.47;70.00;102294.31;6308368;22;20067;-68
2022/07/07 09:22:43;;;;;;;5.80;1.45;;;;;;;18.46;69.51;102297.78;6277002;22;20368;-68
2022/07/07 09:25:09;;;;;;;4.10;0.80;;;;;;;18.35;68.95;102304.50;6306271;22;20003;-68
2022/07/07 09:27:52;;;;;;;6.20;1.05;;;;;;;18.38;69.71;102296.72;6304804;22;20004;-68
2022/07/07 09:30:28;;;;;;;5.65;1.00;;;;;;;18.37;70.08;102298.47;6304876;22;20027;-67
2022/07/07 09:32:54;;;;;;;6.07;0.90;;;;;;;18.28;69.42;102310.44;6307836;22;20010;-68
2022/07/07 09:38:13;;;;;;;5.68;1.00;;;;;;;18.26;70.76;102304.31;6278004;22;20039;-68
2022/07/07 09:38:17;;;;;;;3.55;0.80;;;;;;;18.39;71.39;102306.31;6305574;22;19999;-68
2022/07/07 09:41:13;;;;;;;8.77;0.90;;;;;;;18.52;70.67;102318.72;6306563;22;20003;-67
2022/07/07 09:43:53;;;;;;;5.80;0.85;;;;;;;18.53;70.60;102323.06;6280740;22;20072;-68
2022/07/07 09:46:20;;;;;;;3.63;0.70;;;;;;;18.55;71.04;102323.09;6307285;22;20014;-68
2022/07/07 09:48:50;;;;;;;3.03;0.80;;;;;;;18.55;71.26;102317.88;6305213;22;20086;-68
2022/07/07 09:51:33;;;;;;;2.90;0.93;;;;;;;18.57;71.44;102318.81;6307742;22;20006;-68
2022/07/07 09:54:14;;;;;;;6.38;0.90;;;;;;;18.65;71.43;102336.31;6308408;22;20030;-74
2022/07/07 09:56:45;;;;;;;2.58;0.52;;;;;;;18.71;71.06;102330.38;6306900;22;20112;-74
2022/07/07 09:59:19;;;;;;;5.13;0.98;;;;;;;18.73;70.02;102332.16;6307987;22;20083;-74
2022/07/07 10:01:46;;;;;;;3.47;0.63;;;;;;;18.79;70.08;102349.63;6279840;22;20031;-74
2022/07/07 10:04:19;;;;;;;3.15;0.57;;;;;;;18.75;68.88;102343.50;6308925;22;19999;-73
2022/07/07 10:06:45;;;;;;;3.95;0.52;;;;;;;18.73;69.66;102347.78;6305958;22;20003;-74
2022/07/07 10:09:20;;;;;;;3.50;0.60;;;;;;;18.74;70.07;102361.69;6308761;22;19999;-74
2022/07/07 10:11:52;;;;;;;2.60;0.70;;;;;;;18.71;70.08;102369.47;6279599;22;20280;-74
2022/07/07 10:14:30;;;;;;;4.45;0.77;;;;;;;18.66;69.42;102363.25;6280622;22;20267;-73
2022/07/07 10:16:56;;;;;;;3.65;0.90;;;;;;;18.57;70.21;102361.38;6307893;22;19999;-73
2022/07/07 10:19:23;;;;;;;3.38;0.82;;;;;;;18.53;71.56;102369.97;6307316;22;20432;-74
2022/07/07 10:21:51;;;;;;;3.85;1.10;;;;;;;18.45;71.72;102369.81;6308284;22;20066;-74
2022/07/07 10:24:19;;;;;;;5.32;1.00;;;;;;;18.41;72.24;102374.94;6307001;22;20037;-74
2022/07/07 10:26:55;;;;;;;4.72;0.90;;;;;;;18.46;72.33;102376.78;6279400;22;20004;-73
2022/07/07 10:29:48;;;;;;;5.18;1.20;;;;;;;18.55;72.64;102380.41;6308297;22;20011;-74
2022/07/07 10:32:30;;;;;;;4.32;0.88;;;;;;;18.54;72.90;102384.75;6307166;22;20011;-74
2022/07/07 10:34:58;;;;;;;4.75;0.90;;;;;;;18.61;72.26;102388.34;6308042;22;20034;-74
2022/07/07 10:37:25;;;;;;;2.55;0.68;;;;;;;18.64;72.41;102385.81;6308608;22;20044;-74
2022/07/07 10:39:56;;;;;;;3.58;0.90;;;;;;;18.68;72.63;102387.63;6307512;22;19999;-74
2022/07/07 10:42:34;;;;;;;3.00;0.75;;;;;;;18.74;72.60;102395.56;6280832;22;20010;-74
2022/07/07 10:45:00;;;;;;;3.95;0.80;;;;;;;18.72;72.19;102389.44;6307143;22;20003;-74
2022/07/07 10:47:26;;;;;;;2.47;0.93;;;;;;;18.77;72.23;102403.47;6307631;22;20002;-74
2022/07/07 10:49:55;;;;;;;3.88;1.10;;;;;;;18.70;72.41;102406.78;6307580;22;20006;-74
2022/07/07 10:52:38;;;;;;;6.40;1.00;;;;;;;18.65;73.81;102417.09;6279793;22;20006;-74
2022/07/07 10:55:04;;;;;;;4.70;0.80;;;;;;;18.64;74.47;102417.06;6305888;22;20074;-74
2022/07/07 10:58:01;;;;;;;2.65;0.80;;;;;;;18.65;73.55;102424.91;6307597;22;20524;-74
2022/07/07 11:00:28;;;;;;;2.22;0.70;;;;;;;18.57;74.19;102420.41;6282855;22;20034;-74
2022/07/07 11:03:10;;;;;;;4.13;0.80;;;;;;;18.62;73.69;102431.78;6305750;22;20010;-74
2022/07/07 11:05:36;;;;;;;4.05;0.80;;;;;;;18.59;74.25;102430.00;6308233;22;20082;-74
2022/07/07 11:08:06;;;;;;;3.55;1.00;;;;;;;18.61;73.75;102433.50;6306180;22;20555;-74
2022/07/07 11:10:37;;;;;;;3.97;1.08;;;;;;;18.65;73.01;102427.50;6308783;22;20013;-74
2022/07/07 11:13:29;;;;;;;3.85;1.40;;;;;;;18.68;73.01;102427.59;6306713;22;20010;-74
2022/07/07 11:16:20;;;;;;;4.88;1.30;;;;;;;18.65;73.25;102439.66;6307622;22;20010;-74
2022/07/07 11:18:55;;;;;;;4.25;1.20;;;;;;;18.58;76.57;102448.22;6278839;22;19999;-73
2022/07/07 11:21:46;;;;;;;5.43;1.52;;;;;;;18.51;76.66;102451.53;6307317;22;20007;-74
2022/07/07 11:24:25;;;;;;;6.68;1.70;;;;;;;18.40;78.09;102452.19;6306403;22;20022;-74
2022/07/07 11:26:59;;;;;;;6.60;1.73;;;;;;;18.36;78.43;102459.91;6254211;22;20610;-74